createdAt,value
2023-04-19T00:00:02.323Z,166.355
2023-04-19T00:05:02.425Z,283.414
2023-04-19T00:10:02.549Z,1554.794
2023-04-19T00:15:02.548Z,2217.0280000000002
2023-04-19T00:20:02.511Z,2157.051
2023-04-19T00:25:02.470Z,2194.975
2023-04-19T00:30:02.515Z,2661.331
2023-04-19T00:35:02.457Z,1973.544
2023-04-19T00:40:02.384Z,185.59300000000002
2023-04-19T00:45:02.369Z,184.793
2023-04-19T00:50:02.395Z,299.379
2023-04-19T00:55:02.518Z,309.619
2023-04-19T01:00:02.408Z,302.806
2023-04-19T01:05:02.412Z,185.629
2023-04-19T01:10:02.443Z,158.214
2023-04-19T01:15:02.435Z,158.64000000000001
2023-04-19T01:20:02.412Z,165.39600000000002
2023-04-19T01:25:02.407Z,185.171
2023-04-19T01:30:02.440Z,184.442
2023-04-19T01:35:02.434Z,261.992
2023-04-19T01:40:02.454Z,299.663
2023-04-19T01:45:02.461Z,280.686
2023-04-19T01:50:02.425Z,1540.108
2023-04-19T01:55:02.551Z,2132.503
2023-04-19T02:00:02.642Z,2029.002
2023-04-19T02:05:02.572Z,2189.862
2023-04-19T02:10:02.578Z,2444.8250000000003
2023-04-19T02:15:02.560Z,2376.2200000000003
2023-04-19T02:20:02.540Z,205.663
2023-04-19T02:25:02.464Z,285.863
2023-04-19T02:30:02.453Z,276.444
2023-04-19T02:35:02.481Z,229.165
2023-04-19T02:40:02.486Z,167.971
2023-04-19T02:45:02.557Z,186.58100000000002
2023-04-19T02:50:02.472Z,185.38400000000001
2023-04-19T02:55:02.468Z,184.054
2023-04-19T03:00:02.508Z,183.697
2023-04-19T03:05:02.528Z,165.848
2023-04-19T03:10:02.591Z,283.266
2023-04-19T03:15:02.524Z,272.217
2023-04-19T03:20:02.496Z,1677.41
2023-04-19T03:25:02.459Z,2129.738
2023-04-19T03:30:02.539Z,2148.531
2023-04-19T03:35:02.684Z,2178.062
2023-04-19T03:40:02.703Z,2686.763
2023-04-19T03:45:02.737Z,1239.896
2023-04-19T03:50:02.616Z,157.345
2023-04-19T03:55:02.670Z,262.681
2023-04-19T04:00:02.600Z,300.401
2023-04-19T04:05:02.658Z,301.633
2023-04-19T04:10:02.579Z,203.597
2023-04-19T04:15:02.522Z,187.982
2023-04-19T04:20:02.527Z,193.217
2023-04-19T04:25:02.545Z,194.767
2023-04-19T04:30:02.543Z,195.665
2023-04-19T04:35:01.154Z,171.13400000000001
2023-04-19T04:40:01.168Z,885.333
2023-04-19T04:45:01.108Z,2266.876
2023-04-19T04:50:01.099Z,2139.561
2023-04-19T04:55:01.047Z,2262.454
2023-04-19T05:00:01.070Z,2426.954
2023-04-19T05:05:01.139Z,2833.589
2023-04-19T05:10:01.018Z,222.55100000000002
2023-04-19T05:15:01.088Z,200.681
2023-04-19T05:20:01.088Z,979.753
2023-04-19T05:25:01.054Z,232.071
2023-04-19T05:30:01.023Z,2193.561
2023-04-19T05:35:01.010Z,3636.206
2023-04-19T05:40:01.164Z,2278.62
2023-04-19T05:45:01.708Z,160.571
2023-04-19T05:50:01.094Z,160.578
2023-04-19T05:55:01.076Z,161.409
2023-04-19T06:00:01.327Z,161.842
2023-04-19T06:05:05.095Z,169.111
2023-04-19T06:10:01.311Z,186.53
2023-04-19T06:15:01.289Z,269.769
2023-04-19T06:20:01.151Z,301.382
2023-04-19T06:25:01.143Z,294.596
2023-04-19T06:30:01.092Z,208.055
2023-04-19T06:35:01.189Z,196.347
2023-04-19T06:40:01.096Z,198.566
2023-04-19T06:45:01.264Z,198.653
2023-04-19T06:50:01.096Z,164.609
2023-04-19T06:55:01.086Z,164.885
2023-04-19T07:00:01.144Z,621.548
2023-04-19T07:05:01.152Z,2336.856
2023-04-19T07:10:01.166Z,2344.478
2023-04-19T07:15:01.161Z,2699.446
2023-04-19T07:20:01.139Z,2701.824
2023-04-19T07:25:01.199Z,182.473
2023-04-19T07:30:01.127Z,166.883
2023-04-19T07:35:01.317Z,168.198
2023-04-19T07:40:01.326Z,169.092
2023-04-19T07:45:01.286Z,169.336
2023-04-19T07:50:01.226Z,277.423
2023-04-19T07:55:01.257Z,282.71
2023-04-19T08:00:01.226Z,276.67900000000003
2023-04-19T08:05:01.320Z,171.603
2023-04-19T08:10:01.253Z,171.465
2023-04-19T08:15:11.163Z,172.237
2023-04-19T08:20:01.197Z,178.77100000000002
2023-04-19T08:25:01.193Z,198.374
2023-04-19T08:30:01.180Z,198.074
2023-04-19T08:35:01.183Z,276.569
2023-04-19T08:40:01.225Z,312.793
2023-04-19T08:50:11.620Z,207.904
2023-04-19T08:55:01.235Z,176.995
2023-04-19T09:00:01.241Z,177.228
2023-04-19T09:05:01.355Z,178.37800000000001
2023-04-19T09:10:03.545Z,178.812
2023-04-19T09:15:02.476Z,178.312
2023-04-19T09:20:01.252Z,218.649
2023-04-19T09:30:01.207Z,288.367
2023-04-19T09:35:01.272Z,257.596
2023-04-19T09:40:01.246Z,213.548
2023-04-19T09:45:28.166Z,216.16400000000002
2023-04-19T09:50:01.250Z,215.30100000000002
2023-04-19T09:55:01.961Z,211.773
2023-04-19T10:00:01.257Z,206.517
2023-04-19T10:15:01.272Z,318.952
2023-04-19T10:20:01.345Z,297.504
2023-04-19T10:25:01.313Z,179.448
2023-04-19T10:30:01.334Z,179.63
2023-04-19T10:35:01.273Z,180.345
2023-04-19T10:40:01.339Z,182.147
2023-04-19T10:45:01.375Z,182.232
2023-04-19T10:50:01.389Z,181.899
2023-04-19T10:55:01.349Z,254.175
2023-04-19T11:00:01.429Z,297.896
2023-04-19T11:05:01.336Z,292.63100000000003
2023-04-19T11:10:01.420Z,214.721
2023-04-19T11:15:01.376Z,205.252
2023-04-19T11:20:01.397Z,208.627
2023-04-19T11:25:01.484Z,208.735
2023-04-19T11:30:01.430Z,208.21
2023-04-19T11:35:01.545Z,193.042
2023-04-19T11:40:03.413Z,217.183
2023-04-19T11:45:01.568Z,300.596
2023-04-19T11:50:01.543Z,292.165
2023-04-19T11:55:01.522Z,249.852
2023-04-19T12:00:01.492Z,182.008
2023-04-19T12:05:01.678Z,182.204
2023-04-19T12:10:01.539Z,182.737
2023-04-19T12:15:01.543Z,182.16
2023-04-19T12:20:01.563Z,181.375
2023-04-19T12:25:01.585Z,205.519
2023-04-19T12:30:01.902Z,307.459
2023-04-19T12:35:01.435Z,320.059
2023-04-19T12:40:02.922Z,323.205
2023-04-19T12:45:01.429Z,221.812
2023-04-19T12:50:01.389Z,216.608
2023-04-19T12:55:01.399Z,212.294
2023-04-19T13:00:01.456Z,207.104
2023-04-19T13:05:01.903Z,205.955
2023-04-19T13:10:01.543Z,196.5
2023-04-19T13:15:02.827Z,239.59900000000002
2023-04-19T13:20:01.519Z,297.717
2023-04-19T13:25:01.522Z,290.446
2023-04-19T13:30:01.537Z,223.168
2023-04-19T13:35:01.471Z,180.834
2023-04-19T13:40:15.190Z,180.489
2023-04-19T13:45:01.456Z,180.409
2023-04-19T13:50:01.469Z,179.626
2023-04-19T13:55:01.440Z,179.46200000000002
2023-04-19T14:00:01.514Z,226.698
2023-04-19T14:05:01.498Z,322.213
2023-04-19T14:10:01.507Z,312.767
2023-04-19T14:15:01.510Z,280.57
2023-04-19T14:20:01.558Z,185.142
2023-04-19T14:25:01.510Z,177.665
2023-04-19T14:30:01.520Z,176.145
2023-04-19T14:35:01.570Z,176.108
2023-04-19T14:40:01.622Z,180.499
2023-04-19T14:45:01.453Z,216.832
2023-04-19T14:50:01.559Z,332.67400000000004
2023-04-19T14:55:01.526Z,331.442
2023-04-19T15:00:01.670Z,281.412
2023-04-19T15:05:01.895Z,182.08700000000002
2023-04-19T15:10:01.530Z,187.979
2023-04-19T15:15:01.523Z,199.085
2023-04-19T15:20:01.630Z,196.526
2023-04-19T15:25:01.472Z,1404.048
2023-04-19T15:30:01.575Z,2279.372
2023-04-19T15:35:01.602Z,2337.695
2023-04-19T15:40:01.703Z,2399.096
2023-04-19T15:45:01.514Z,2251.639
2023-04-19T15:50:01.590Z,1892.728
2023-04-19T15:55:01.596Z,1322.307
2023-04-19T16:00:01.609Z,1446.916
2023-04-19T16:05:01.638Z,2942.127
2023-04-19T16:10:01.611Z,2893.502
2023-04-19T16:15:01.596Z,1056.232
2023-04-19T16:20:01.585Z,531.884
2023-04-19T16:25:01.645Z,383.407
2023-04-19T16:30:01.616Z,1068.173
2023-04-19T16:35:01.637Z,862.148
2023-04-19T16:40:01.726Z,531.294
2023-04-19T16:45:01.643Z,288.01300000000003
2023-04-19T16:50:01.581Z,280.797
2023-04-19T16:55:01.570Z,289.123
2023-04-19T17:00:01.629Z,294.036
2023-04-19T17:05:01.792Z,424.492
2023-04-19T17:10:01.637Z,1007.8290000000001
2023-04-19T17:15:01.583Z,400.628
2023-04-19T17:20:01.691Z,398.359
2023-04-19T17:25:01.630Z,299.467
2023-04-19T17:30:01.634Z,283.069
2023-04-19T17:35:01.727Z,254.104
2023-04-19T17:40:01.629Z,260.198
2023-04-19T17:45:01.644Z,280.891
2023-04-19T17:50:01.695Z,279.574
2023-04-19T17:55:01.613Z,342.343
2023-04-19T18:00:01.955Z,811.374
2023-04-19T18:05:01.984Z,2527.243
2023-04-19T18:10:01.863Z,2393.19
2023-04-19T18:15:01.871Z,2300.464
2023-04-19T18:20:01.832Z,813.707
2023-04-19T18:25:01.882Z,187.54500000000002
2023-04-19T18:30:01.848Z,203.834
2023-04-19T18:35:01.806Z,216.459
2023-04-19T18:40:01.797Z,218.11100000000002
2023-04-19T18:45:01.696Z,326.605
2023-04-19T18:50:05.577Z,898.077
2023-04-19T18:55:01.757Z,303.75600000000003
2023-04-19T19:00:01.737Z,214.582
2023-04-19T19:05:02.489Z,214.597
2023-04-19T19:10:03.930Z,210.023
2023-04-19T19:15:01.752Z,212.292
2023-04-19T19:20:02.006Z,214.871
2023-04-19T19:25:01.710Z,215.419
2023-04-19T19:30:01.794Z,459.205
2023-04-19T19:35:03.968Z,2578.16
2023-04-19T19:40:04.440Z,2208.543
2023-04-19T19:45:01.785Z,2356.001
2023-04-19T19:55:01.815Z,2909.168
2023-04-19T20:05:01.877Z,336.515
2023-04-19T20:10:01.765Z,315.47700000000003
2023-04-19T20:15:01.970Z,323.396
2023-04-19T20:20:01.906Z,432.54900000000004
2023-04-19T20:25:01.950Z,400.387
2023-04-19T20:30:01.946Z,375.932
2023-04-19T20:35:01.947Z,287.708
2023-04-19T20:40:01.944Z,288.423
2023-04-19T20:45:01.878Z,288.992
2023-04-19T20:50:01.943Z,288.855
2023-04-19T20:55:01.872Z,288.79
2023-04-19T21:00:01.871Z,289.123
2023-04-19T21:05:01.897Z,4521.24
2023-04-19T21:10:01.835Z,7714.668000000001
2023-04-19T21:15:01.789Z,7722.802000000001
2023-04-19T21:20:01.824Z,7662.628000000001
2023-04-19T21:25:01.824Z,7647.837
2023-04-19T21:30:01.927Z,7653.457
2023-04-19T21:35:01.842Z,7659.607
2023-04-19T21:40:03.094Z,7647.755
2023-04-19T21:45:01.882Z,9467.407000000001
2023-04-19T21:50:01.873Z,9612.14
2023-04-19T21:55:01.948Z,9744.15
2023-04-19T22:00:01.871Z,10149.969000000001
2023-04-19T22:05:01.979Z,9602.995
2023-04-19T22:10:01.905Z,7587.909000000001
2023-04-19T22:15:01.996Z,7560.746
2023-04-19T22:20:01.865Z,7524.7080000000005
2023-04-19T22:25:01.874Z,7517.015
2023-04-19T22:30:01.901Z,7491.1810000000005
2023-04-19T22:35:01.978Z,7505.901
2023-04-19T22:40:03.580Z,7611.5470000000005
2023-04-19T22:45:01.892Z,7617.79
2023-04-19T22:50:01.955Z,7602.6810000000005
2023-04-19T22:55:02.160Z,7524.860000000001
2023-04-19T23:00:01.990Z,7504.678
2023-04-19T23:05:01.989Z,7141.051
2023-04-19T23:10:01.917Z,4750.59
2023-04-19T23:15:01.960Z,4572.563
2023-04-19T23:20:02.086Z,5113.84
2023-04-19T23:25:02.114Z,6800.006
2023-04-19T23:30:02.101Z,6863.549
2023-04-19T23:35:02.095Z,6864.354
2023-04-19T23:40:03.624Z,6726.651
2023-04-19T23:45:02.200Z,6281.653
2023-04-19T23:50:02.201Z,3583.2180000000003
2023-04-19T23:55:02.144Z,3098.7980000000002
